Terminal Aerodrome Forecast
Issued by NWS

Home | Current Version | Previous Version | Text Only | Print | Product List | Glossary On
Versions: 1 2 3 4 5 6 7 8 9 10 11 12
000
FTUS44 KTSA 300520
TAFFYV
TAF
KFYV 300520Z 3006/3106 00000KT P6SM VCTS SCT050CB
     FM300900 18003KT 4SM BR SCT025
     FM301300 18005KT P6SM SCT040
      TEMPO 3013/3017 BKN025
     FM302100 18007KT P6SM VCTS SCT050CB
     FM310100 18003KT P6SM SCT080=

USA.gov is the U.S. government's official web portal to all federal, state and local government web resources and services.